createdAt,value
2017-06-28T00:07:10.000Z,4.1
2017-06-28T00:24:00.000Z,4.1
2017-06-28T00:40:49.000Z,4.1
2017-06-28T00:57:39.000Z,4.1
2017-06-28T01:14:28.000Z,4.1
2017-06-28T01:31:17.000Z,4.1
2017-06-28T01:48:08.000Z,4
2017-06-28T02:04:57.000Z,4
2017-06-28T02:21:46.000Z,4
2017-06-28T02:38:35.000Z,4
2017-06-28T02:55:25.000Z,4
2017-06-28T03:12:15.000Z,4
2017-06-28T03:29:04.000Z,4
2017-06-28T03:45:53.000Z,4
2017-06-28T04:02:42.000Z,3.9
2017-06-28T04:19:33.000Z,3.9
2017-06-28T04:36:22.000Z,3.9
2017-06-28T04:53:11.000Z,4
2017-06-28T05:10:00.000Z,4
2017-06-28T05:26:50.000Z,4
2017-06-28T05:43:40.000Z,4
2017-06-28T06:00:29.000Z,4
2017-06-28T06:17:18.000Z,4.1
2017-06-28T06:34:08.000Z,4.2
2017-06-28T06:50:58.000Z,4.2
2017-06-28T07:07:48.000Z,4.3
2017-06-28T07:24:38.000Z,4.4
2017-06-28T07:41:28.000Z,4.5
2017-06-28T07:58:19.000Z,4.5
2017-06-28T08:15:09.000Z,4.5
2017-06-28T08:31:59.000Z,4.5
2017-06-28T08:48:49.000Z,4.5
2017-06-28T09:05:40.000Z,4.6
2017-06-28T09:22:31.000Z,4.6
2017-06-28T09:39:21.000Z,4.6
2017-06-28T09:56:13.000Z,4.6
2017-06-28T10:13:03.000Z,4.5
2017-06-28T10:29:55.000Z,4.5
2017-06-28T10:46:46.000Z,4.5
2017-06-28T11:03:37.000Z,4.5
2017-06-28T11:20:28.000Z,4.4
2017-06-28T11:37:19.000Z,4.4
2017-06-28T11:54:10.000Z,4.5
2017-06-28T12:11:01.000Z,4.5
2017-06-28T12:27:51.000Z,4.5
2017-06-28T12:44:43.000Z,4.5
2017-06-28T13:01:34.000Z,4.5
2017-06-28T13:15:02.000Z,4.5
2017-06-28T13:31:52.000Z,4.5
2017-06-28T13:48:43.000Z,4.5
2017-06-28T14:05:34.000Z,4.5
2017-06-28T14:22:24.000Z,4.6
2017-06-28T14:39:15.000Z,4.6
2017-06-28T14:56:06.000Z,4.5
2017-06-28T15:12:57.000Z,4.5
2017-06-28T15:29:47.000Z,4.5
2017-06-28T15:46:37.000Z,4.5
2017-06-28T16:03:28.000Z,4.5
2017-06-28T16:20:19.000Z,4.5
2017-06-28T16:37:09.000Z,4.5
2017-06-28T16:53:59.000Z,4.5
2017-06-28T17:10:49.000Z,4.5
2017-06-28T17:27:40.000Z,4.5
2017-06-28T17:44:30.000Z,4.5
2017-06-28T18:01:21.000Z,4.4
2017-06-28T18:18:11.000Z,4.4
2017-06-28T18:35:02.000Z,4.4
2017-06-28T18:51:52.000Z,4.4
2017-06-28T19:08:43.000Z,4.4
2017-06-28T19:25:34.000Z,4.4
2017-06-28T19:42:24.000Z,4.4
2017-06-28T19:59:15.000Z,4.3
2017-06-28T20:16:05.000Z,4.3
2017-06-28T20:32:56.000Z,4.3
2017-06-28T20:49:46.000Z,4.3
2017-06-28T21:06:37.000Z,4.3
2017-06-28T21:23:28.000Z,4.2
2017-06-28T21:40:17.000Z,4.2
2017-06-28T21:57:06.000Z,4.2
2017-06-28T22:13:57.000Z,4.2
2017-06-28T22:30:46.000Z,4.2
2017-06-28T22:47:35.000Z,4.2
2017-06-28T23:04:24.000Z,4.2
2017-06-28T23:21:15.000Z,4.2
2017-06-28T23:38:04.000Z,4.2
2017-06-28T23:54:53.000Z,4.2
